SCFT

Futaleufú Airport

Airport
ICAO code
SCFT
IATA Code
FFU
Summary
ICAO Region
CARSAM
ICAO Territory
Location

Futaleufu, Los Lagos

Serving
Futaleufu
Elevation
1148 ft
Coordinates
43° 11' 21" S , 71° 51' 4" W
KCC
Cfb
Metar
Observation
SCFT 131600Z AUTO 15006KT 110V180 9000 -RASN SCT004/// OVC028/// 01/00 Q0996 RERASN
Station
FUTALEUFU
Date/Time
2022-08-13 16:00:00
Wind direction
150°
Wind speed
06 kts
Lowest cloud amount
scattered clouds
Temperature
1°C
Dew point
0°C
Humidity
93%
QNH
996 hPa
Weather condition
n/a

Airport located near Futaleufu, Los Lagos, Chile.

Climatology

Temperate oceanic climate (Köppen climate classification Cfb)

Runways

Designator Length Width Surface Rops
9/27 948 18 ASP No/No

Airport map

Aerial View

SKYbrary Partners:

Safety knowledge contributed by: